createdAt,value
2023-03-22T00:02:08.527Z,6.00
2023-03-22T00:04:35.251Z,5.63
2023-03-22T00:07:01.943Z,5.50
2023-03-22T00:09:28.603Z,8.13
2023-03-22T00:11:55.729Z,7.13
2023-03-22T00:14:22.357Z,7.97
2023-03-22T00:16:49.401Z,8.20
2023-03-22T00:19:17.454Z,8.55
2023-03-22T00:21:44.337Z,9.18
2023-03-22T00:24:11.102Z,8.50
2023-03-22T00:26:37.871Z,9.02
2023-03-22T00:29:04.819Z,8.70
2023-03-22T00:31:31.856Z,8.10
2023-03-22T00:33:58.614Z,8.85
2023-03-22T00:36:26.089Z,9.20
2023-03-22T00:38:52.761Z,8.60
2023-03-22T00:41:22.390Z,7.90
2023-03-22T00:43:50.293Z,8.13
2023-03-22T00:46:19.946Z,7.82
2023-03-22T00:48:50.603Z,7.78
2023-03-22T00:51:18.077Z,8.07
2023-03-22T00:53:45.496Z,8.38
2023-03-22T00:56:14.268Z,8.77
2023-03-22T00:58:42.147Z,8.88
2023-03-22T01:01:08.965Z,8.88
2023-03-22T01:03:35.643Z,8.52
2023-03-22T01:06:02.596Z,8.75
2023-03-22T01:08:33.406Z,8.73
2023-03-22T01:11:01.401Z,8.50
2023-03-22T01:13:29.075Z,8.55
2023-03-22T01:15:56.070Z,8.95
2023-03-22T01:18:23.405Z,8.38
2023-03-22T01:20:51.465Z,8.65
2023-03-22T01:23:18.089Z,8.85
2023-03-22T01:25:44.693Z,7.97
2023-03-22T01:28:14.477Z,8.52
2023-03-22T01:30:41.820Z,7.97
2023-03-22T01:33:09.110Z,9.48
2023-03-22T01:35:36.652Z,9.55
2023-03-22T01:38:04.138Z,9.82
2023-03-22T01:40:30.992Z,9.60
2023-03-22T01:42:57.688Z,9.85
2023-03-22T01:45:43.751Z,9.32
2023-03-22T01:48:23.459Z,9.13
2023-03-22T01:51:03.305Z,8.82
2023-03-22T01:53:34.513Z,7.35
2023-03-22T01:56:02.296Z,7.28
2023-03-22T01:58:29.143Z,6.60
2023-03-22T02:00:56.499Z,5.95
2023-03-22T02:03:47.820Z,5.60
2023-03-22T02:06:14.579Z,5.97
2023-03-22T02:08:42.569Z,6.43
2023-03-22T02:11:16.295Z,7.15
2023-03-22T02:13:48.087Z,8.00
2023-03-22T02:16:36.808Z,6.97
2023-03-22T02:19:19.168Z,7.05
2023-03-22T02:22:10.518Z,8.00
2023-03-22T02:25:07.856Z,8.40
2023-03-22T02:30:23.064Z,8.68
2023-03-22T02:33:02.486Z,10.45
2023-03-22T02:35:59.544Z,9.77
2023-03-22T02:38:57.814Z,8.02
2023-03-22T02:41:46.962Z,7.90
2023-03-22T02:44:27.058Z,6.45
2023-03-22T02:47:03.279Z,7.10
2023-03-22T02:49:49.659Z,7.35
2023-03-22T02:52:25.222Z,7.78
2023-03-22T02:54:52.870Z,7.80
2023-03-22T02:57:40.239Z,7.30
2023-03-22T03:00:11.507Z,8.93
2023-03-22T03:02:44.471Z,9.18
2023-03-22T03:05:13.421Z,9.05
2023-03-22T03:07:44.483Z,8.35
2023-03-22T03:10:16.134Z,8.68
2023-03-22T03:12:43.712Z,10.10
2023-03-22T03:15:16.370Z,9.70
2023-03-22T03:17:54.242Z,9.18
2023-03-22T03:20:21.986Z,8.98
2023-03-22T03:23:24.489Z,7.90
2023-03-22T03:26:01.659Z,9.25
2023-03-22T03:28:49.916Z,10.70
2023-03-22T03:31:32.932Z,8.93
2023-03-22T03:34:23.270Z,9.93
2023-03-22T03:37:00.211Z,8.55
2023-03-22T03:39:33.254Z,8.80
2023-03-22T03:42:01.897Z,9.15
2023-03-22T03:44:31.380Z,8.73
2023-03-22T03:46:58.574Z,9.50
2023-03-22T03:49:27.148Z,8.68
2023-03-22T03:51:56.082Z,9.52
2023-03-22T03:54:23.722Z,9.13
2023-03-22T03:56:50.908Z,10.60
2023-03-22T03:59:18.834Z,9.00
2023-03-22T04:01:50.325Z,9.02
2023-03-22T04:04:26.544Z,8.82
2023-03-22T04:09:27.375Z,9.13
2023-03-22T04:11:55.968Z,10.73
2023-03-22T04:14:24.092Z,9.77
2023-03-22T04:16:51.140Z,10.18
2023-03-22T04:19:18.025Z,10.30
2023-03-22T04:21:44.792Z,9.55
2023-03-22T04:24:12.140Z,9.70
2023-03-22T04:26:39.730Z,9.75
2023-03-22T04:29:06.562Z,9.15
2023-03-22T04:31:34.126Z,8.90
2023-03-22T04:34:05.566Z,9.90
2023-03-22T04:36:36.570Z,10.32
2023-03-22T04:39:07.379Z,10.20
2023-03-22T04:41:34.891Z,9.48
2023-03-22T04:44:03.314Z,10.65
2023-03-22T04:46:31.255Z,11.10
2023-03-22T04:49:01.834Z,10.65
2023-03-22T04:51:28.776Z,11.35
2023-03-22T04:53:55.531Z,10.85
2023-03-22T04:56:22.242Z,11.52
2023-03-22T04:58:48.931Z,10.77
2023-03-22T05:01:17.936Z,10.48
2023-03-22T05:03:47.418Z,11.02
2023-03-22T05:06:14.707Z,10.45
2023-03-22T05:08:41.880Z,11.02
2023-03-22T05:11:12.871Z,11.30
2023-03-22T05:13:39.978Z,11.25
2023-03-22T05:16:07.757Z,11.07
2023-03-22T05:18:34.876Z,11.65
2023-03-22T05:21:03.881Z,12.70
2023-03-22T05:23:30.614Z,13.10
2023-03-22T05:26:02.048Z,11.77
2023-03-22T05:28:32.003Z,12.77
2023-03-22T05:30:59.225Z,12.10
2023-03-22T05:33:27.826Z,11.40
2023-03-22T05:35:54.455Z,11.68
2023-03-22T05:38:22.979Z,12.32
2023-03-22T05:40:49.584Z,12.93
2023-03-22T05:43:16.236Z,11.63
2023-03-22T05:45:42.951Z,11.43
2023-03-22T05:48:09.674Z,12.52
2023-03-22T05:50:36.614Z,12.85
2023-03-22T05:53:04.100Z,12.90
2023-03-22T05:55:32.149Z,12.32
2023-03-22T05:57:59.920Z,14.98
2023-03-22T06:00:27.106Z,18.20
2023-03-22T06:02:56.394Z,23.45
2023-03-22T06:05:23.625Z,22.10
2023-03-22T06:07:50.354Z,17.65
2023-03-22T06:10:18.224Z,17.77
2023-03-22T06:12:45.359Z,16.25
2023-03-22T06:15:12.439Z,18.60
2023-03-22T06:17:39.190Z,17.88
2023-03-22T06:20:10.094Z,17.67
2023-03-22T06:22:37.257Z,16.92
2023-03-22T06:25:05.247Z,16.73
2023-03-22T06:27:32.326Z,16.95
2023-03-22T06:29:59.075Z,17.50
2023-03-22T06:32:26.786Z,16.08
2023-03-22T06:34:54.410Z,15.77
2023-03-22T06:37:22.135Z,17.00
2023-03-22T06:39:49.180Z,16.55
2023-03-22T06:42:16.232Z,16.75
2023-03-22T06:44:44.629Z,16.67
2023-03-22T06:47:12.047Z,15.85
2023-03-22T06:49:39.455Z,15.40
2023-03-22T06:52:06.672Z,16.85
2023-03-22T06:54:33.474Z,17.77
2023-03-22T06:57:00.399Z,16.83
2023-03-22T06:59:27.246Z,15.77
2023-03-22T07:01:54.276Z,16.10
2023-03-22T07:04:21.178Z,15.35
2023-03-22T07:06:48.191Z,16.75
2023-03-22T07:09:14.948Z,16.60
2023-03-22T07:11:41.898Z,17.30
2023-03-22T07:14:08.659Z,16.90
2023-03-22T07:16:35.304Z,17.85
2023-03-22T07:19:02.073Z,17.25
2023-03-22T07:21:28.696Z,16.42
2023-03-22T07:23:55.603Z,17.45
2023-03-22T07:26:22.248Z,18.75
2023-03-22T07:28:48.906Z,19.45
2023-03-22T07:31:17.161Z,18.08
2023-03-22T07:33:44.014Z,18.25
2023-03-22T07:36:10.978Z,18.33
2023-03-22T07:38:37.903Z,18.58
2023-03-22T07:41:04.771Z,17.95
2023-03-22T07:43:32.950Z,19.27
2023-03-22T07:46:02.085Z,18.33
2023-03-22T07:48:31.101Z,18.80
2023-03-22T07:50:57.800Z,18.90
2023-03-22T07:53:24.481Z,20.70
2023-03-22T07:55:51.177Z,19.98
2023-03-22T07:58:17.950Z,20.25
2023-03-22T08:00:44.611Z,21.60
2023-03-22T08:03:12.606Z,19.55
2023-03-22T08:05:42.330Z,21.55
2023-03-22T08:08:09.884Z,24.02
2023-03-22T08:10:36.656Z,20.35
2023-03-22T08:13:03.430Z,20.00
2023-03-22T08:15:30.532Z,21.13
2023-03-22T08:17:58.163Z,20.77
2023-03-22T08:20:27.366Z,20.48
2023-03-22T08:22:54.923Z,19.38
2023-03-22T08:25:22.255Z,20.00
2023-03-22T08:27:49.044Z,19.20
2023-03-22T08:30:16.105Z,18.55
2023-03-22T08:32:42.767Z,22.00
2023-03-22T08:35:10.047Z,19.13
2023-03-22T08:37:36.884Z,18.15
2023-03-22T08:40:07.332Z,18.88
2023-03-22T08:42:34.066Z,15.85
2023-03-22T08:45:00.814Z,12.88
2023-03-22T08:47:27.662Z,14.75
2023-03-22T08:49:54.327Z,14.60
2023-03-22T08:52:21.186Z,13.27
2023-03-22T08:54:47.917Z,15.02
2023-03-22T08:57:15.139Z,13.25
2023-03-22T08:59:41.807Z,12.45
2023-03-22T09:02:09.181Z,12.18
2023-03-22T09:04:36.151Z,11.60
2023-03-22T09:07:03.023Z,11.88
2023-03-22T09:09:29.787Z,10.93
2023-03-22T09:11:56.420Z,10.20
2023-03-22T09:14:23.097Z,10.93
2023-03-22T09:16:49.784Z,9.75
2023-03-22T09:19:16.571Z,9.45
2023-03-22T09:21:43.482Z,10.43
2023-03-22T09:24:10.187Z,9.80
2023-03-22T09:26:37.080Z,10.25
2023-03-22T09:29:07.004Z,10.77
2023-03-22T09:31:33.820Z,10.93
2023-03-22T09:34:00.840Z,10.82
2023-03-22T09:36:27.519Z,10.15
2023-03-22T09:38:54.142Z,11.35
2023-03-22T09:41:27.607Z,10.15
2023-03-22T09:43:59.544Z,10.20
2023-03-22T09:46:33.731Z,9.82
2023-03-22T09:49:02.799Z,10.68
2023-03-22T09:51:46.683Z,10.18
2023-03-22T09:54:21.364Z,9.23
2023-03-22T09:56:57.573Z,10.75
2023-03-22T09:59:39.939Z,10.65
2023-03-22T10:02:21.959Z,10.52
2023-03-22T10:05:04.835Z,10.60
2023-03-22T10:07:55.080Z,9.63
2023-03-22T10:10:24.145Z,11.07
2023-03-22T10:13:16.541Z,11.77
2023-03-22T10:15:49.117Z,11.55
2023-03-22T10:18:19.582Z,11.07
2023-03-22T10:21:03.150Z,11.10
2023-03-22T10:23:32.927Z,10.95
2023-03-22T10:26:01.978Z,11.38
2023-03-22T10:28:39.369Z,11.98
2023-03-22T10:31:07.270Z,11.25
2023-03-22T10:33:39.386Z,11.27
2023-03-22T10:36:12.596Z,11.80
2023-03-22T10:38:47.094Z,11.55
2023-03-22T10:41:18.545Z,11.63
2023-03-22T10:43:48.194Z,12.15
2023-03-22T10:46:21.156Z,11.05
2023-03-22T10:48:51.596Z,11.48
2023-03-22T10:51:29.348Z,11.95
2023-03-22T10:53:58.204Z,10.25
2023-03-22T10:56:25.095Z,10.60
2023-03-22T10:58:51.869Z,10.07
2023-03-22T11:01:29.658Z,10.90
2023-03-22T11:03:59.778Z,9.55
2023-03-22T11:06:30.173Z,7.75
2023-03-22T11:09:01.334Z,8.32
2023-03-22T11:11:31.112Z,9.00
2023-03-22T11:14:11.873Z,7.70
2023-03-22T11:16:44.445Z,9.30
2023-03-22T11:19:19.014Z,8.93
2023-03-22T11:21:45.824Z,8.10
2023-03-22T11:24:15.364Z,8.32
2023-03-22T11:26:42.083Z,8.60
2023-03-22T11:29:16.601Z,9.00
2023-03-22T11:31:55.184Z,7.38
2023-03-22T11:34:26.319Z,7.32
2023-03-22T11:36:56.583Z,8.05
2023-03-22T11:39:26.017Z,7.18
2023-03-22T11:42:01.616Z,6.72
2023-03-22T11:44:34.588Z,8.75
2023-03-22T11:47:03.006Z,8.77
2023-03-22T11:49:42.997Z,8.05
2023-03-22T11:52:16.337Z,7.43
2023-03-22T11:54:45.799Z,8.40
2023-03-22T11:57:17.393Z,7.72
2023-03-22T11:59:48.792Z,9.00
2023-03-22T12:02:37.120Z,6.60
2023-03-22T12:05:18.952Z,6.47
2023-03-22T12:07:48.653Z,4.00
2023-03-22T12:10:34.192Z,6.47
2023-03-22T12:13:07.201Z,6.45
2023-03-22T12:15:41.030Z,6.25
2023-03-22T12:18:16.503Z,4.90
2023-03-22T12:20:52.048Z,5.20
2023-03-22T12:23:21.932Z,5.95
2023-03-22T12:25:53.771Z,5.93
2023-03-22T12:28:28.390Z,6.63
2023-03-22T12:30:58.470Z,6.00
2023-03-22T12:33:32.223Z,6.70
2023-03-22T12:36:03.406Z,5.20
2023-03-22T12:38:48.386Z,6.07
2023-03-22T12:41:18.980Z,6.25
2023-03-22T12:44:01.863Z,6.57
2023-03-22T12:46:34.192Z,7.03
2023-03-22T12:49:13.786Z,6.07
2023-03-22T12:51:45.744Z,7.40
2023-03-22T12:54:15.008Z,7.57
2023-03-22T12:56:45.079Z,8.32
2023-03-22T12:59:22.542Z,8.32
2023-03-22T13:01:56.390Z,8.65
2023-03-22T13:04:38.210Z,7.95
2023-03-22T13:07:31.892Z,7.82
2023-03-22T13:10:00.731Z,6.70
2023-03-22T13:12:31.753Z,8.13
2023-03-22T13:15:03.512Z,7.32
2023-03-22T13:17:30.152Z,7.53
2023-03-22T13:20:19.992Z,6.85
2023-03-22T13:22:47.649Z,6.78
2023-03-22T13:25:35.859Z,7.97
2023-03-22T13:28:26.447Z,7.95
2023-03-22T13:30:58.861Z,7.45
2023-03-22T13:33:29.078Z,7.97
2023-03-22T13:35:59.348Z,8.13
2023-03-22T13:38:30.371Z,8.27
2023-03-22T13:41:12.663Z,8.07
2023-03-22T13:43:39.250Z,7.30
2023-03-22T13:46:11.752Z,7.57
2023-03-22T13:48:57.417Z,7.88
2023-03-22T13:51:26.114Z,7.20
2023-03-22T13:54:13.672Z,7.43
2023-03-22T13:56:42.459Z,6.95
2023-03-22T13:59:11.112Z,7.53
2023-03-22T14:02:08.399Z,6.88
2023-03-22T14:04:53.137Z,6.72
2023-03-22T14:07:35.378Z,6.63
2023-03-22T14:10:06.654Z,7.00
2023-03-22T14:12:51.641Z,8.05
2023-03-22T14:15:23.151Z,7.00
2023-03-22T14:17:58.782Z,7.13
2023-03-22T14:20:31.039Z,6.57
